• Join FlightAware (Why Join?)
  • Login
  • US Flag 
08:05PM EDT


 

Airport Tracker/Info


-or-


 

Live Flight TrackerFlight Track Log ✈ UAE354 ✈ 19-Jun-2013 ✈ OMDB / DXB - WSSS / SIN

Flight Track Log - Related Links

Times and Time Zones

All times are in EDT time to prevent confusion due to time zone crossing. See the UAE354 flight status page for this flight to view local times or setup timezone preferences in your user account.

Time Position Orientation Groundspeed Altitude Reporting Facility
EDT Latitude Longitude Course Direction KTS MPH feet Rate Location/Type
07:26PM 25.2460 55.3720 68° East  Level FlightAware
07:29PM 25.1543 55.6627 109° East  Level Estimated
07:30PM 25.1143 55.7890 109° East  Level Estimated
07:30PM 25.2450 55.3730 109° East  Level FlightAware
07:32PM 25.1740 55.5985 109° East  Level Estimated
07:33PM 25.1340 55.7248 109° East  Level Estimated
07:34PM 25.0939 55.8510 109° East  Level Estimated
07:34PM 25.2420 55.3810 109° East  Level FlightAware
07:36PM 25.1623 55.6338 109° East  Level Estimated
07:37PM 25.1223 55.7601 109° East  Level Estimated
07:38PM 25.0822 55.8863 109° East  Level Estimated
07:39PM 25.0420 56.0125 109° East  Level Estimated
07:40PM 25.0016 56.1385 109° East  Level Estimated
07:41PM 24.9612 56.2645 109° East  Level Estimated
07:42PM 25.2550 55.3670 299° West 114 131 600  Level FlightAware
07:42PM 25.2670 55.3450 301° West 177 204 800 540 Climbing FlightAware
07:42PM 25.2730 55.3360 306° West 181 208 1,000 1,320 Climbing FlightAware
07:43PM 25.2890 55.3110 305° West 179 206 1,800 1,440 Climbing FlightAware
07:43PM 25.3010 55.2910 304° West 198 228 2,300 1,560 Climbing FlightAware
07:43PM 25.3130 55.2710 304° West 203 234 3,100 1,440 Climbing FlightAware
07:44PM 25.3300 55.2550 320° Northwest 214 246 3,600 1,920 Climbing FlightAware
07:44PM 25.3730 55.2570 North 236 272 5,000 2,460 Climbing FlightAware
07:45PM 25.4070 55.2600 North 251 289 5,900 1,740 Climbing FlightAware
07:45PM 25.4440 55.2630 North 274 315 6,600 1,320 Climbing FlightAware
07:46PM 25.4610 55.2710 23° Northeast 290 334 6,900 1,560 Climbing FlightAware
07:46PM 25.4760 55.2870 44° Northeast 301 346 7,400 1,980 Climbing FlightAware
07:46PM 25.4850 55.3080 65° Northeast 306 352 7,900 780 Climbing FlightAware
07:47PM 25.4930 55.3440 76° East 305 351 8,000 960 Climbing FlightAware
07:48PM 25.5120 55.4270 76° East 308 354 9,500 900 Climbing FlightAware
07:48PM 25.5200 55.4590 75° East 308 354 9,500  Level FlightAware
07:49PM 25.5280 55.4920 75° East 308 354 9,500  Level FlightAware
07:49PM 25.5360 55.5240 75° East 308 354 9,500 780 Level FlightAware
07:52PM 25.4393 55.8262 109° East  Level Estimated
07:53PM 25.3996 55.9494 110° East  Level Estimated
07:54PM 25.3598 56.0725 110° East  Level Estimated
07:55PM 25.3200 56.1955 110° East  Level Estimated
07:56PM 25.2800 56.3185 110° East  Level Estimated
07:57PM 25.2399 56.4414 110° East  Level Estimated
07:58PM 25.1998 56.5642 110° East  Level Estimated
07:59PM 25.1595 56.6869 110° East  Level Estimated
08:00PM 25.1191 56.8095 110° East  Level Estimated
08:01PM 25.0787 56.9321 110° East  Level Estimated
08:02PM 25.0381 57.0546 110° East  Level Estimated
08:03PM 24.9974 57.1769 110° East  Level Estimated
08:04PM 24.9566 57.2993 110° East  Level Estimated
08:05PM 24.9158 57.4215 110° East  Level Estimated
08:06PM 24.8748 57.5436 110° East  Level Estimated
08:07PM 24.8337 57.6657 110° East  Level Estimated
08:08PM 24.7925 57.7877 110° East  Level Estimated
08:09PM 24.7513 57.9096 110° East  Level Estimated
08:10PM 24.7099 58.0314 110° East  Level Estimated
08:11PM 24.6684 58.1531 111° Southeast  Level Estimated
08:12PM 24.6269 58.2748 111° Southeast  Level Estimated
08:13PM 24.5852 58.3964 111° Southeast  Level Estimated
08:14PM 24.5434 58.5179 111° Southeast  Level Estimated
08:15PM 24.5016 58.6393 111° Southeast  Level Estimated
08:16PM 24.4596 58.7606 111° Southeast  Level Estimated
08:17PM 24.4176 58.8819 111° Southeast  Level Estimated
08:18PM 24.3754 59.0031 111° Southeast  Level Estimated
08:19PM 24.3332 59.1242 111° Southeast  Level Estimated
08:20PM 24.2908 59.2452 111° Southeast  Level Estimated
08:21PM 24.2484 59.3661 111° Southeast  Level Estimated
08:22PM 24.2059 59.4869 111° Southeast  Level Estimated
08:23PM 24.1632 59.6077 111° Southeast  Level Estimated
08:23PM 23.8470 60.0350 111° Southeast 489 563 37,000  Level FlightAware
08:23PM 23.8030 60.1330 116° Southeast 489 563 37,000  Level FlightAware
08:24PM 24.1205 59.7284 111° Southeast  Level Estimated
08:24PM 23.7740 60.1970 116° Southeast 489 563 37,000  Level FlightAware
08:25PM 23.7320 60.2910 116° Southeast 489 563 37,000  Level FlightAware
08:25PM 23.7020 60.3590 116° Southeast 489 563 37,000  Level FlightAware
08:26PM 23.6620 60.4500 116° Southeast 489 563 37,000  Level FlightAware
08:27PM 23.6310 60.5180 116° Southeast 489 563 37,000  Level FlightAware
08:28PM 23.5910 60.6080 116° Southeast 489 563 37,000  Level FlightAware
08:28PM 23.5600 60.6760 116° Southeast 489 563 37,000  Level FlightAware
08:29PM 23.5220 60.7630 115° Southeast 489 563 37,000  Level FlightAware
08:30PM 23.4910 60.8310 116° Southeast 489 563 37,000  Level FlightAware
08:30PM 23.4500 60.9230 116° Southeast 489 563 37,000  Level FlightAware
08:31PM 23.4200 60.9910 116° Southeast 489 563 37,000  Level FlightAware
08:32PM 23.3860 61.0660 116° Southeast 489 563 37,000  Level FlightAware
08:33PM 23.3470 61.1530 116° Southeast 489 563 37,000  Level FlightAware
08:35PM 23.2599 61.3921 112° Southeast  Level Estimated
08:36PM 23.2163 61.5116 112° Southeast  Level Estimated
08:37PM 23.1725 61.6310 112° Southeast  Level Estimated
08:38PM 23.1287 61.7503 112° Southeast  Level Estimated
08:39PM 23.0847 61.8695 112° Southeast  Level Estimated
08:40PM 23.0407 61.9886 112° Southeast  Level Estimated
08:41PM 22.9966 62.1077 112° Southeast  Level Estimated
08:42PM 22.9524 62.2267 112° Southeast  Level Estimated
08:43PM 22.9081 62.3456 112° Southeast  Level Estimated
08:44PM 22.8637 62.4644 112° Southeast  Level Estimated
08:45PM 22.8192 62.5831 112° Southeast  Level Estimated
08:46PM 22.7746 62.7018 112° Southeast  Level Estimated
08:47PM 22.7300 62.8204 112° Southeast  Level Estimated
08:48PM 22.6852 62.9389 112° Southeast  Level Estimated
08:49PM 22.6404 63.0574 112° Southeast  Level Estimated
08:50PM 22.5955 63.1757 112° Southeast  Level Estimated
08:51PM 22.5505 63.2940 112° Southeast  Level Estimated
08:52PM 22.5054 63.4122 112° Southeast  Level Estimated
08:53PM 22.4603 63.5304 112° Southeast  Level Estimated
08:54PM 22.4150 63.6484 113° Southeast  Level Estimated
08:55PM 22.3697 63.7664 113° Southeast  Level Estimated
08:56PM 22.3242 63.8843 113° Southeast  Level Estimated
08:57PM 22.2787 64.0021 113° Southeast  Level Estimated
08:58PM 22.2331 64.1199 113° Southeast  Level Estimated
08:59PM 22.1874 64.2375 113° Southeast  Level Estimated
09:00PM 22.1417 64.3551 113° Southeast  Level Estimated
09:01PM 22.0958 64.4727 113° Southeast  Level Estimated
09:02PM 22.0499 64.5901 113° Southeast  Level Estimated
09:03PM 22.0039 64.7075 113° Southeast  Level Estimated
09:04PM 21.9578 64.8248 113° Southeast  Level Estimated
09:05PM 21.9116 64.9420 113° Southeast  Level Estimated
09:06PM 21.8653 65.0591 113° Southeast  Level Estimated
09:07PM 21.8190 65.1762 113° Southeast  Level Estimated
09:08PM 21.7725 65.2932 113° Southeast  Level Estimated
09:09PM 21.7260 65.4101 113° Southeast  Level Estimated
09:10PM 21.6794 65.5269 113° Southeast  Level Estimated
09:11PM 21.6327 65.6436 113° Southeast  Level Estimated
09:12PM 21.5860 65.7603 113° Southeast  Level Estimated
09:13PM 21.5391 65.8769 113° Southeast  Level Estimated
09:14PM 21.4922 65.9935 113° Southeast  Level Estimated
09:15PM 21.4452 66.1099 113° Southeast  Level Estimated
09:16PM 21.3981 66.2263 113° Southeast  Level Estimated
09:17PM 21.3510 66.3426 114° Southeast  Level Estimated
09:18PM 21.3037 66.4588 114° Southeast  Level Estimated
09:19PM 21.2564 66.5750 114° Southeast  Level Estimated
09:20PM 21.2090 66.6911 114° Southeast  Level Estimated
09:21PM 21.1615 66.8071 114° Southeast  Level Estimated
09:22PM 21.1140 66.9230 114° Southeast  Level Estimated
09:23PM 21.0663 67.0389 114° Southeast  Level Estimated
09:24PM 21.0186 67.1547 114° Southeast  Level Estimated
09:25PM 20.9708 67.2704 114° Southeast  Level Estimated
09:26PM 20.9229 67.3860 114° Southeast  Level Estimated
09:27PM 20.8750 67.5016 114° Southeast  Level Estimated
09:28PM 20.8269 67.6171 114° Southeast  Level Estimated
09:29PM 20.7788 67.7325 114° Southeast  Level Estimated
09:30PM 20.7306 67.8478 114° Southeast  Level Estimated
09:31PM 20.6824 67.9631 114° Southeast  Level Estimated
09:32PM 20.6340 68.0783 114° Southeast  Level Estimated
09:33PM 20.5856 68.1934 114° Southeast  Level Estimated
09:34PM 20.5371 68.3084 114° Southeast  Level Estimated
09:35PM 20.4886 68.4234 114° Southeast  Level Estimated
09:36PM 20.4399 68.5383 114° Southeast  Level Estimated
09:37PM 20.3912 68.6532 114° Southeast  Level Estimated
09:38PM 20.3424 68.7679 114° Southeast  Level Estimated
09:39PM 20.2935 68.8826 114° Southeast  Level Estimated
09:40PM 20.2446 68.9972 114° Southeast  Level Estimated
09:41PM 20.1956 69.1117 114° Southeast  Level Estimated
09:42PM 20.1465 69.2262 115° Southeast  Level Estimated
09:43PM 20.0973 69.3406 115° Southeast  Level Estimated
09:44PM 20.0481 69.4549 115° Southeast  Level Estimated
09:45PM 19.9988 69.5692 115° Southeast  Level Estimated
09:46PM 19.9494 69.6834 115° Southeast  Level Estimated
09:47PM 19.8999 69.7975 115° Southeast  Level Estimated
09:48PM 19.8504 69.9115 115° Southeast  Level Estimated
09:49PM 19.8008 70.0255 115° Southeast  Level Estimated
09:50PM 19.7511 70.1394 115° Southeast  Level Estimated
09:51PM 19.7014 70.2532 115° Southeast  Level Estimated
09:52PM 19.6515 70.3670 115° Southeast  Level Estimated
09:53PM 19.6017 70.4806 115° Southeast  Level Estimated
09:54PM 19.5517 70.5943 115° Southeast  Level Estimated
09:55PM 19.5017 70.7078 115° Southeast  Level Estimated
09:56PM 19.4516 70.8213 115° Southeast  Level Estimated
09:57PM 19.4014 70.9347 115° Southeast  Level Estimated
09:58PM 19.3512 71.0480 115° Southeast  Level Estimated
09:59PM 19.3008 71.1612 115° Southeast  Level Estimated
10:00PM 19.2505 71.2744 115° Southeast  Level Estimated
10:01PM 19.2000 71.3876 115° Southeast  Level Estimated
10:02PM 19.1495 71.5006 115° Southeast  Level Estimated
10:03PM 19.0989 71.6136 115° Southeast  Level Estimated
10:04PM 19.0482 71.7265 115° Southeast  Level Estimated
10:05PM 18.9975 71.8393 115° Southeast  Level Estimated
10:06PM 18.9467 71.9521 115° Southeast  Level Estimated
10:07PM 18.8958 72.0648 115° Southeast  Level Estimated
10:08PM 18.8449 72.1775 116° Southeast  Level Estimated
10:09PM 18.7939 72.2900 116° Southeast  Level Estimated
10:10PM 18.7428 72.4025 116° Southeast  Level Estimated
10:11PM 18.6917 72.5150 116° Southeast  Level Estimated
10:12PM 18.6405 72.6274 116° Southeast  Level Estimated
10:13PM 18.5892 72.7397 116° Southeast  Level Estimated
10:14PM 18.5379 72.8519 116° Southeast  Level Estimated
10:15PM 18.4865 72.9641 116° Southeast  Level Estimated
10:16PM 18.4350 73.0761 116° Southeast  Level Estimated
10:17PM 18.3835 73.1882 116° Southeast  Level Estimated
10:18PM 18.3319 73.3001 116° Southeast  Level Estimated
10:19PM 18.2802 73.4120 116° Southeast  Level Estimated
10:20PM 18.2285 73.5239 116° Southeast  Level Estimated
10:21PM 18.1767 73.6356 116° Southeast  Level Estimated
10:22PM 18.1248 73.7473 116° Southeast  Level Estimated
10:23PM 18.0729 73.8590 116° Southeast  Level Estimated
10:24PM 18.0209 73.9705 116° Southeast  Level Estimated
10:25PM 17.9689 74.0820 116° Southeast  Level Estimated
10:26PM 17.9167 74.1935 116° Southeast  Level Estimated
10:27PM 17.8646 74.3048 116° Southeast  Level Estimated
10:28PM 17.8123 74.4161 116° Southeast  Level Estimated
10:29PM 17.7600 74.5274 116° Southeast  Level Estimated
10:30PM 17.7076 74.6385 116° Southeast  Level Estimated
10:31PM 17.6552 74.7496 116° Southeast  Level Estimated
10:32PM 17.6027 74.8607 116° Southeast  Level Estimated
10:33PM 17.5502 74.9717 116° Southeast  Level Estimated
10:34PM 17.4976 75.0826 116° Southeast  Level Estimated
10:35PM 17.4449 75.1934 116° Southeast  Level Estimated
10:36PM 17.3921 75.3042 116° Southeast  Level Estimated
10:37PM 17.3393 75.4149 117° Southeast  Level Estimated
10:38PM 17.2865 75.5256 117° Southeast  Level Estimated
10:39PM 17.2336 75.6362 117° Southeast  Level Estimated
10:40PM 17.1806 75.7467 117° Southeast  Level Estimated
10:41PM 17.1275 75.8572 117° Southeast  Level Estimated
10:42PM 17.0744 75.9676 117° Southeast  Level Estimated
10:42PM 15.5860 77.6250 117° Southeast 470 541 37,000  Level FlightAware
10:43PM 17.0213 76.0779 117° Southeast  Level Estimated
10:43PM 15.5500 77.7010 116° Southeast 468 539 37,000  Level FlightAware
10:43PM 15.5180 77.7690 116° Southeast 468 539 37,000  Level FlightAware
10:44PM 15.4790 77.8500 117° Southeast 468 539 37,000  Level FlightAware
10:45PM 15.4420 77.9290 116° Southeast 468 539 37,000  Level FlightAware
10:46PM 15.4130 77.9910 116° Southeast 468 539 37,000  Level FlightAware
10:46PM 15.3440 78.1320 117° Southeast 470 541 37,000  Level FlightAware
10:47PM 15.3000 78.2200 117° Southeast 470 541 37,000  Level FlightAware
10:48PM 15.2620 78.2980 117° Southeast 470 541 37,000  Level FlightAware
10:48PM 15.2210 78.3820 117° Southeast 470 541 37,000  Level FlightAware
10:49PM 15.1760 78.4750 117° Southeast 470 541 37,000  Level FlightAware
10:50PM 15.1320 78.5700 116° Southeast 470 541 37,000  Level FlightAware
10:51PM 15.0930 78.6530 116° Southeast 470 541 37,000  Level FlightAware
10:52PM 15.0640 78.7140 116° Southeast 470 541 37,000  Level FlightAware
10:52PM 15.0250 78.7970 116° Southeast 470 541 37,000  Level FlightAware
10:53PM 14.9950 78.8610 116° Southeast 470 541 37,000  Level FlightAware
10:54PM 14.9550 78.9450 116° Southeast 470 541 37,000  Level FlightAware
10:55PM 14.8600 79.1150 120° Southeast 470 541 37,000  Level FlightAware
10:55PM 14.8310 79.1760 116° Southeast 470 541 37,000  Level FlightAware
10:56PM 14.7900 79.2620 116° Southeast 470 541 37,000  Level FlightAware
10:57PM 14.7490 79.3390 119° Southeast 466 536 37,000  Level FlightAware
10:57PM 14.7010 79.4360 117° Southeast 466 536 37,000  Level FlightAware
10:58PM 14.6670 79.5050 117° Southeast 466 536 37,000  Level FlightAware
10:59PM 14.6230 79.5940 117° Southeast 469 540 37,000  Level FlightAware
11:00PM 14.5740 79.6920 117° Southeast 470 541 37,000  Level FlightAware
11:00PM 14.5390 79.7620 117° Southeast 470 541 37,000  Level FlightAware
11:01PM 14.4880 79.8650 117° Southeast 468 539 37,000  Level FlightAware
11:02PM 14.4350 79.9700 118° Southeast 467 537 37,000  Level FlightAware
11:03PM 14.3730 80.0950 117° Southeast 467 537 37,000  Level FlightAware
11:04PM 14.3430 80.1560 117° Southeast 467 537 37,000  Level FlightAware
11:04PM 14.3010 80.2410 117° Southeast 467 537 37,000  Level FlightAware
11:05PM 14.2690 80.3050 117° Southeast 467 537 37,000  Level FlightAware
11:06PM 14.2020 80.4350 118° Southeast 472 543 37,000  Level FlightAware
11:07PM 14.1720 80.4960 117° Southeast 472 543 37,000  Level FlightAware
11:08PM 14.1190 80.6020 117° Southeast 472 543 37,000  Level FlightAware
11:08PM 14.0890 80.6630 117° Southeast 472 543 37,000  Level FlightAware
11:09PM 14.0500 80.7420 117° Southeast 472 543 37,000  Level FlightAware
11:10PM 14.0200 80.8030 117° Southeast 472 543 37,000  Level FlightAware
11:10PM 13.9790 80.8870 117° Southeast 472 543 37,000  Level FlightAware
11:11PM 13.9420 80.9620 117° Southeast 472 543 37,000  Level FlightAware
11:12PM 13.8260 81.1950 117° Southeast 472 543 37,000  Level FlightAware
11:13PM 13.7920 81.2620 118° Southeast 472 543 37,000  Level FlightAware
11:13PM 13.7400 81.3690 117° Southeast 472 543 37,000  Level FlightAware
11:14PM 13.7060 81.4390 117° Southeast 472 543 37,000  Level FlightAware
11:15PM 13.6660 81.5210 117° Southeast 471 542 37,000  Level FlightAware
11:16PM 13.6230 81.6110 116° Southeast 470 541 37,000  Level FlightAware
11:16PM 13.5940 81.6720 116° Southeast 470 541 37,000  Level FlightAware
11:17PM 13.5550 81.7540 116° Southeast 470 541 37,000  Level FlightAware
11:18PM 13.5260 81.8160 116° Southeast 470 541 37,000  Level FlightAware
11:18PM 13.4870 81.8980 116° Southeast 470 541 37,000  Level FlightAware
11:19PM 13.4580 81.9590 116° Southeast 470 541 37,000  Level FlightAware
11:20PM 13.3580 82.1480 119° Southeast 470 541 37,000  Level FlightAware
11:21PM 13.3220 82.2220 117° Southeast 470 541 37,000  Level FlightAware
11:21PM 13.2850 82.2980 117° Southeast 469 540 37,000  Level FlightAware
11:22PM 13.2390 82.3910 117° Southeast 467 537 37,000  Level FlightAware
11:23PM 13.1880 82.4970 116° Southeast 466 536 37,000  Level FlightAware
11:24PM 13.1590 82.5570 116° Southeast 466 536 37,000  Level FlightAware
11:24PM 13.1210 82.6390 115° Southeast 466 536 37,000  Level FlightAware
11:25PM 13.0890 82.7050 116° Southeast 466 536 37,000  Level FlightAware
11:26PM 13.0600 82.7670 116° Southeast 466 536 37,000  Level FlightAware
11:27PM 13.0210 82.8480 116° Southeast 466 536 37,000  Level FlightAware
11:27PM 12.9940 82.9060 116° Southeast 466 536 37,000  Level FlightAware
11:28PM 12.9540 82.9890 116° Southeast 466 536 37,000  Level FlightAware
11:29PM 12.9250 83.0490 116° Southeast 466 536 37,000  Level FlightAware
11:29PM 12.8870 83.1310 115° Southeast 466 536 37,000  Level FlightAware
11:30PM 12.8450 83.2180 116° Southeast 466 536 37,000  Level FlightAware
11:31PM 12.8060 83.3000 116° Southeast 466 536 37,000  Level FlightAware
11:32PM 12.7770 83.3620 116° Southeast 466 536 37,000  Level FlightAware
11:32PM 12.7380 83.4430 116° Southeast 466 536 37,000  Level FlightAware
11:35PM 12.6221 83.6701 118° Southeast  Level Estimated
11:36PM 12.5673 83.7773 118° Southeast  Level Estimated
11:37PM 12.5124 83.8845 118° Southeast  Level Estimated
11:38PM 12.4575 83.9916 118° Southeast  Level Estimated
11:39PM 12.4025 84.0987 118° Southeast  Level Estimated
11:40PM 12.3476 84.2057 118° Southeast  Level Estimated
11:41PM 12.2925 84.3127 118° Southeast  Level Estimated
11:42PM 12.2374 84.4197 118° Southeast  Level Estimated
11:43PM 12.1823 84.5266 118° Southeast  Level Estimated
11:44PM 12.1272 84.6334 118° Southeast  Level Estimated
11:45PM 12.0720 84.7402 118° Southeast  Level Estimated
11:46PM 12.0167 84.8470 118° Southeast  Level Estimated
11:47PM 11.9614 84.9538 118° Southeast  Level Estimated
11:48PM 11.9061 85.0604 118° Southeast  Level Estimated
11:49PM 11.8508 85.1671 118° Southeast  Level Estimated
11:50PM 11.7954 85.2737 118° Southeast  Level Estimated
11:51PM 11.7399 85.3802 118° Southeast  Level Estimated
11:52PM 11.6845 85.4867 118° Southeast  Level Estimated
11:53PM 11.6289 85.5932 118° Southeast  Level Estimated
11:54PM 11.5734 85.6996 118° Southeast  Level Estimated
11:55PM 11.5178 85.8060 118° Southeast  Level Estimated
11:56PM 11.4621 85.9123 118° Southeast  Level Estimated
11:57PM 11.4065 86.0186 118° Southeast  Level Estimated
11:58PM 11.3507 86.1249 118° Southeast  Level Estimated
11:59PM 11.2950 86.2311 118° Southeast  Level Estimated
12:00AM 11.2392 86.3373 118° Southeast  Level Estimated
12:01AM 11.1834 86.4434 118° Southeast  Level Estimated
12:02AM 11.1275 86.5495 118° Southeast  Level Estimated
12:03AM 11.0716 86.6555 118° Southeast  Level Estimated
12:04AM 11.0157 86.7616 118° Southeast  Level Estimated
12:05AM 10.9597 86.8675 118° Southeast  Level Estimated
12:06AM 10.9037 86.9735 118° Southeast  Level Estimated
12:07AM 10.8476 87.0794 118° Southeast  Level Estimated
12:08AM 10.7916 87.1852 118° Southeast  Level Estimated
12:09AM 10.7354 87.2910 118° Southeast  Level Estimated
12:10AM 10.6793 87.3968 118° Southeast  Level Estimated
12:11AM 10.6231 87.5025 118° Southeast  Level Estimated
12:12AM 10.5669 87.6082 118° Southeast  Level Estimated
12:13AM 10.5106 87.7139 118° Southeast  Level Estimated
12:14AM 10.4543 87.8195 118° Southeast  Level Estimated
12:15AM 10.3980 87.9250 118° Southeast  Level Estimated
12:16AM 10.3416 88.0306 118° Southeast  Level Estimated
12:17AM 10.2852 88.1361 119° Southeast  Level Estimated
12:18AM 10.2288 88.2415 119° Southeast  Level Estimated
12:19AM 10.1723 88.3470 119° Southeast  Level Estimated
12:20AM 10.1158 88.4524 119° Southeast  Level Estimated
12:21AM 10.0593 88.5577 119° Southeast  Level Estimated
12:22AM 10.0027 88.6630 119° Southeast  Level Estimated
12:23AM 9.9461 88.7683 119° Southeast  Level Estimated
12:24AM 9.8895 88.8736 119° Southeast  Level Estimated
12:25AM 9.8328 88.9788 119° Southeast  Level Estimated
12:26AM 9.7761 89.0839 119° Southeast  Level Estimated
12:27AM 9.7194 89.1891 119° Southeast  Level Estimated
12:28AM 9.6626 89.2942 119° Southeast  Level Estimated
12:29AM 9.6058 89.3992 119° Southeast  Level Estimated
12:30AM 9.5490 89.5043 119° Southeast  Level Estimated
12:31AM 9.4921 89.6093 119° Southeast  Level Estimated
12:32AM 9.4353 89.7142 119° Southeast  Level Estimated
12:33AM 9.3783 89.8191 119° Southeast  Level Estimated
12:34AM 9.3214 89.9240 119° Southeast  Level Estimated
12:35AM 9.2644 90.0289 119° Southeast  Level Estimated
12:36AM 9.2074 90.1337 119° Southeast  Level Estimated
12:37AM 9.1503 90.2385 119° Southeast  Level Estimated
12:38AM 9.0933 90.3432 119° Southeast  Level Estimated
12:39AM 9.0362 90.4480 119° Southeast  Level Estimated
12:40AM 8.9790 90.5526 119° Southeast  Level Estimated
12:41AM 8.9219 90.6573 119° Southeast  Level Estimated
12:42AM 8.8647 90.7619 119° Southeast  Level Estimated
12:43AM 8.8075 90.8665 119° Southeast  Level Estimated
12:44AM 8.7502 90.9711 119° Southeast  Level Estimated
12:45AM 8.6930 91.0756 119° Southeast  Level Estimated
12:46AM 8.6356 91.1801 119° Southeast  Level Estimated
12:47AM 8.5783 91.2845 119° Southeast  Level Estimated
12:48AM 8.5209 91.3890 119° Southeast  Level Estimated
12:49AM 8.4635 91.4934 119° Southeast  Level Estimated
12:50AM 8.4061 91.5977 119° Southeast  Level Estimated
12:51AM 8.3487 91.7021 119° Southeast  Level Estimated
12:52AM 8.2912 91.8064 119° Southeast  Level Estimated
12:53AM 8.2337 91.9106 119° Southeast  Level Estimated
12:54AM 8.1762 92.0149 119° Southeast  Level Estimated
12:55AM 8.1186 92.1191 119° Southeast  Level Estimated
12:56AM 8.0611 92.2233 119° Southeast  Level Estimated
12:57AM 8.0034 92.3274 119° Southeast  Level Estimated
12:58AM 7.9458 92.4315 119° Southeast  Level Estimated
12:59AM 7.8882 92.5356 119° Southeast  Level Estimated
01:00AM 7.8305 92.6397 119° Southeast  Level Estimated
01:01AM 7.7728 92.7438 119° Southeast  Level Estimated
01:02AM 7.7150 92.8478 119° Southeast  Level Estimated
01:03AM 7.6573 92.9517 119° Southeast  Level Estimated
01:04AM 7.5995 93.0557 119° Southeast  Level Estimated
01:05AM 7.5417 93.1596 119° Southeast  Level Estimated
01:06AM 7.4838 93.2635 119° Southeast  Level Estimated
01:07AM 7.4260 93.3674 119° Southeast  Level Estimated
01:08AM 7.3681 93.4712 119° Southeast  Level Estimated
01:09AM 7.3102 93.5750 119° Southeast  Level Estimated
01:10AM 7.2523 93.6788 119° Southeast  Level Estimated
01:11AM 7.1943 93.7826 119° Southeast  Level Estimated
01:12AM 7.1364 93.8861 119° Southeast  Level Estimated
01:13AM 7.0786 93.9896 119° Southeast  Level Estimated
01:14AM 7.0207 94.0930 119° Southeast  Level Estimated
01:15AM 6.9628 94.1964 119° Southeast  Level Estimated
01:16AM 6.9048 94.2998 119° Southeast  Level Estimated
01:17AM 6.8469 94.4032 119° Southeast  Level Estimated
01:18AM 6.7889 94.5066 119° Southeast  Level Estimated
01:19AM 6.7309 94.6099 119° Southeast  Level Estimated
01:20AM 6.6729 94.7132 119° Southeast  Level Estimated
01:21AM 6.6148 94.8164 119° Southeast  Level Estimated
01:22AM 6.5567 94.9197 120° Southeast  Level Estimated
01:23AM 6.4986 95.0229 120° Southeast  Level Estimated
01:24AM 6.4405 95.1261 120° Southeast  Level Estimated
01:25AM 6.3824 95.2293 120° Southeast  Level Estimated
01:26AM 6.3243 95.3325 120° Southeast  Level Estimated
01:27AM 6.2661 95.4356 120° Southeast  Level Estimated
01:28AM 6.2079 95.5387 120° Southeast  Level Estimated
01:29AM 6.1497 95.6418 120° Southeast  Level Estimated
01:30AM 6.0917 95.7444 120° Southeast  Level Estimated
01:31AM 6.0337 95.8470 120° Southeast  Level Estimated
01:32AM 5.9757 95.9495 120° Southeast  Level Estimated
01:33AM 5.9177 96.0521 120° Southeast  Level Estimated
01:34AM 5.8596 96.1546 120° Southeast  Level Estimated
01:35AM 5.8016 96.2571 120° Southeast  Level Estimated
01:36AM 5.7435 96.3595 120° Southeast  Level Estimated
01:37AM 5.6854 96.4620 120° Southeast  Level Estimated
01:37AM 5.6370 98.2170 120° Southeast 482 555 37,000  Level FlightAware
01:38AM 5.6273 96.5644 120° Southeast  Level Estimated
01:38AM 5.5840 98.2790 131° Southeast 472 543 37,000  Level FlightAware
01:39AM 5.4600 98.4210 131° Southeast 460 529 37,000  Level FlightAware
01:41AM 5.3380 98.5660 130° Southeast 461 531 37,000  Level FlightAware
01:41AM 5.2590 98.6530 132° Southeast 463 533 37,000  Level FlightAware
01:42AM 5.1940 98.7290 131° Southeast 466 536 37,000  Level FlightAware
01:43AM 5.1410 98.7910 131° Southeast 469 540 37,000  Level FlightAware
01:44AM 5.0750 98.8660 131° Southeast 470 541 37,000  Level FlightAware
01:44AM 5.0150 98.9350 131° Southeast 469 540 37,000  Level FlightAware
01:45AM 4.9590 99.0000 131° Southeast 472 543 37,000  Level FlightAware
01:46AM 4.8950 99.0740 131° Southeast 476 548 37,000  Level FlightAware
01:46AM 4.8350 99.1420 132° Southeast 477 549 37,000  Level FlightAware
01:47AM 4.7700 99.2180 131° Southeast 477 549 37,000  Level FlightAware
01:48AM 4.7160 99.2810 131° Southeast 476 548 37,000  Level FlightAware
01:49AM 4.6490 99.3550 132° Southeast 474 545 37,000  Level FlightAware
01:50AM 4.5630 99.4510 132° Southeast 474 545 37,000  Level FlightAware
01:50AM 4.5090 99.5100 133° Southeast 474 545 37,000  Level FlightAware
01:51AM 4.4370 99.5890 132° Southeast 473 544 37,000  Level FlightAware
01:52AM 4.3740 99.6580 132° Southeast 471 542 37,000  Level FlightAware
01:52AM 4.3020 99.7380 132° Southeast 473 544 37,000  Level FlightAware
01:53AM 4.2450 99.8010 132° Southeast 473 544 37,000  Level FlightAware
01:54AM 4.1770 99.8750 133° Southeast 470 541 37,000  Level FlightAware
01:55AM 4.1170 99.9420 132° Southeast 468 539 37,000  Level FlightAware
01:56AM 4.0220 100.0480 132° Southeast 468 539 37,000  Level FlightAware
01:57AM 3.9340 100.1440 133° Southeast 463 533 37,000  Level FlightAware
01:57AM 3.8790 100.2040 133° Southeast 463 533 37,000  Level FlightAware
01:58AM 3.8300 100.2590 132° Southeast 463 533 37,000  Level FlightAware
01:59AM 3.7700 100.3240 133° Southeast 465 535 37,000  Level FlightAware
01:59AM 3.7100 100.3910 132° Southeast 465 535 37,000  Level FlightAware
02:01AM 3.5660 100.5510 123° Southeast 465 535 37,000  Level FlightAware
02:02AM 3.5746 100.5986 123° Southeast  Level Estimated
02:02AM 3.4980 100.6250 133° Southeast 464 534 37,000  Level FlightAware
02:03AM 3.4530 100.6750 132° Southeast 464 534 37,000  Level FlightAware
02:04AM 3.3940 100.7400 132° Southeast 464 534 37,000  Level FlightAware
02:04AM 3.3500 100.7890 132° Southeast 464 534 37,000  Level FlightAware
02:06AM 3.2050 100.9510 132° Southeast 464 534 37,000  Level FlightAware
02:07AM 3.1610 101.0000 132° Southeast 464 534 37,000  Level FlightAware
02:07AM 3.1020 101.0650 132° Southeast 464 534 37,000  Level FlightAware
02:08AM 2.9780 101.1960 133° Southeast 467 537 37,000  Level FlightAware
02:09AM 2.8900 101.2920 133° Southeast 467 537 37,000  Level FlightAware
02:10AM 2.8290 101.3600 132° Southeast 466 536 37,000  Level FlightAware
02:12AM 2.7273 101.5419 119° Southeast  Level Estimated
02:12AM 2.6860 101.5180 119° Southeast 465 535 37,000  Level FlightAware
02:12AM 2.5580 101.6580 132° Southeast 464 534 37,000  Level FlightAware
02:13AM 2.5100 101.7110 132° Southeast 463 533 37,000  Level FlightAware
02:14AM 2.4520 101.7740 133° Southeast 463 533 37,000  Level FlightAware
02:15AM 2.3960 101.8350 133° Southeast 458 527 37,000  Level FlightAware
02:16AM 2.2830 101.9610 132° Southeast 458 527 37,000  Level FlightAware
02:17AM 2.2380 102.0110 132° Southeast 458 527 37,000  Level FlightAware
02:18AM 2.1750 102.0800 132° Southeast 461 531 37,000  Level FlightAware
02:18AM 2.1200 102.1750 120° Southeast 455 524 37,000  Level FlightAware
02:19AM 2.0780 102.2560 117° Southeast 455 524 37,000  Level FlightAware
02:19AM 2.0490 102.3140 117° Southeast 455 524 37,000  Level FlightAware
02:20AM 2.0130 102.3840 117° Southeast 455 524 37,000  Level FlightAware
02:21AM 1.9810 102.4480 117° Southeast 455 524 37,000  Level FlightAware
02:21AM 1.9510 102.5070 117° Southeast 455 524 37,000  Level FlightAware
02:22AM 1.9110 102.5850 117° Southeast 455 524 37,000  Level FlightAware
02:23AM 1.8800 102.6460 117° Southeast 455 524 37,000  Level FlightAware
02:24AM 1.8410 102.7220 117° Southeast 455 524 37,000 -6,540 Level FlightAware
02:24AM 1.7330 102.8990 121° Southeast 448 516 27,200 -5,460 Descending FlightAware
02:26AM 1.6530 103.0480 118° Southeast 439 505 24,300 -1,800 Descending FlightAware
02:26AM 1.5990 103.1300 123° Southeast 421 484 23,300 -1,260 Descending FlightAware
02:27AM 1.5370 103.1710 147° Southeast 399 459 22,800 -720 Descending FlightAware
02:28AM 1.4760 103.2120 146° Southeast 376 433 22,400 -600 Descending FlightAware
02:28AM 1.4130 103.2530 147° Southeast 351 404 22,000 -840 Descending FlightAware
02:29AM 1.3670 103.2840 146° Southeast 346 398 21,300 -720 Descending FlightAware
02:30AM 1.3370 103.3040 146° Southeast 346 398 21,300  Level FlightAware
02:31AM 1.2550 103.3590 146° Southeast 346 398 21,300  Level FlightAware
02:32AM 1.2030 103.3940 146° Southeast 346 398 21,300  Level FlightAware
02:32AM 1.1490 103.4310 146° Southeast 346 398 21,300  Level FlightAware
02:33AM 1.1110 103.4570 146° Southeast 346 398 21,300 -1,440 Level FlightAware
02:36AM 1.2411 103.7389 65° Northeast  Level Estimated
02:36AM 1.0720 103.7300 65° Northeast 292 336 15,600  Level FlightAware
02:37AM 1.0820 103.8060 83° East 291 335 14,900 -840 Descending FlightAware
02:38AM 1.0890 103.8590 82° East 289 333 14,500 -660 Descending FlightAware
02:38AM 1.0980 103.9150 81° East 294 338 14,000 -720 Descending FlightAware
02:39AM 1.1080 103.9730 80° East 296 341 13,500 -900 Descending FlightAware
02:40AM 1.1180 104.0270 80° East 296 341 12,800 -1,020 Descending FlightAware
02:41AM 1.1280 104.0860 80° East 298 343 12,100 -1,140 Descending FlightAware
02:41AM 1.1380 104.1240 75° East 297 342 11,500 -1,200 Descending FlightAware
02:41AM 1.1470 104.1350 51° Northeast 287 330 11,300 -1,320 Descending FlightAware
02:41AM 1.1660 104.1450 28° Northeast 276 318 10,900 -1,200 Descending FlightAware
02:42AM 1.2150 104.1650 22° Northeast 277 319 10,200 -1,140 Descending FlightAware
02:43AM 1.2500 104.1810 25° Northeast 276 318 9,600 -1,200 Descending FlightAware
02:43AM 1.2840 104.1950 22° Northeast 276 318 9,100 -1,080 Descending FlightAware
02:44AM 1.3170 104.2090 23° Northeast 276 318 8,600 -1,140 Descending FlightAware
02:44AM 1.3340 104.2160 22° Northeast 275 316 8,300 -420 Descending FlightAware
02:44AM 1.3680 104.2300 22° Northeast 271 312 8,300  Level FlightAware
02:45AM 1.3980 104.2430 23° Northeast 269 310 8,300  Level FlightAware
02:45AM 1.4150 104.2500 22° Northeast 270 311 8,300 -120 Level FlightAware
02:46AM 1.5040 104.2870 23° Northeast 238 274 8,200 -180 Descending FlightAware
02:47AM 1.5200 104.2890 North 228 262 8,100 -600 Descending FlightAware
02:47AM 1.5500 104.2900 North 223 257 7,800 -900 Descending FlightAware
02:48AM 1.5770 104.2900 360° North 222 255 7,300 -1,140 Descending FlightAware
02:48AM 1.6060 104.2900 360° North 220 253 6,800 -1,200 Descending FlightAware
02:48AM 1.6200 104.2900 360° North 220 253 6,500 -1,020 Descending FlightAware
02:49AM 1.6450 104.2900 360° North 220 253 6,200 -600 Descending FlightAware
02:49AM 1.6930 104.2910 North 216 249 5,800 -480 Descending FlightAware
02:50AM 1.7210 104.2910 360° North 218 251 5,600 -240 Descending FlightAware
02:50AM 1.7480 104.2920 North 217 250 5,600 -600 Level FlightAware
02:51AM 1.7470 104.2720 267° West 176 203 5,200 -960 Descending FlightAware
02:51AM 1.7420 104.2500 257° West 176 203 5,000 -420 Descending FlightAware
02:51AM 1.7330 104.2400 228° Southwest 187 215 4,900 -420 Descending FlightAware
02:52AM 1.7160 104.2220 227° Southwest 188 216 4,700 -600 Descending FlightAware
02:52AM 1.7000 104.2060 225° Southwest 185 213 4,400 -660 Descending FlightAware
02:53AM 1.6860 104.1920 225° Southwest 181 208 4,200 -480 Descending FlightAware
02:53AM 1.6670 104.1730 225° Southwest 182 209 4,000 -540 Descending FlightAware
02:54AM 1.6500 104.1550 227° Southwest 186 214 3,700 -420 Descending FlightAware
02:54AM 1.6320 104.1360 227° Southwest 188 216 3,600 -360 Descending FlightAware
02:55AM 1.6180 104.1210 227° Southwest 186 214 3,400 -300 Descending FlightAware
02:55AM 1.5960 104.0980 226° Southwest 184 212 3,300 -120 Descending FlightAware
02:56AM 1.5660 104.0700 223° Southwest 190 219 3,300  Level FlightAware
02:56AM 1.5420 104.0590 205° Southwest 199 229 3,300 -120 Level FlightAware
02:57AM 1.5170 104.0490 202° Southwest 182 209 3,200 -540 Descending FlightAware
02:57AM 1.4960 104.0390 205° Southwest 175 201 2,800 -1,020 Descending FlightAware
02:58AM 1.4750 104.0310 201° Southwest 170 196 2,300 -1,020 Descending FlightAware
02:58AM 1.4550 104.0220 204° Southwest 166 191 1,900 -900 Descending FlightAware
02:59AM 1.4360 104.0140 203° Southwest 149 171 1,500 -780 Descending FlightAware
02:59AM 1.4190 104.0070 202° Southwest 143 165 1,200 -660 Descending FlightAware
02:59AM 1.4120 104.0040 203° Southwest 140 161 1,100 -780 Descending FlightAware
03:00AM 1.3940 103.9960 204° Southwest 140 161 700 -840 Descending FlightAware
03:00AM 1.3760 103.9890 201° Southwest 147 169 300 -420 Descending FlightAware
03:01AM 1.3610 103.9820 205° Southwest 147 169 300  Level FlightAware
03:03AM 1.3557 103.9875 134° Southeast  Level Estimated
03:04AM 1.3557 103.9875 214° Southwest  Level Estimated
03:05AM 1.3557 103.9875 214° Southwest  Level Estimated